Time;durP1;ratioP1;P1;durP2;ratioP2;P2;SDS_P1;SDS_P2;PMS_P1;PMS_P2;Temp;Humidity;BMP_temperature;BMP_pressure;BME280_temperature;BME280_humidity;BME280_pressure;Samples;Min_cycle;Max_cycle;Signal;HPM_P1;HPM_P2
2022/03/13 00:00:17;;;;;;;13.23;11.13;;;8.00;48.40;;;;;;5034192;28;20189;-89
2022/03/13 00:02:46;;;;;;;12.63;11.33;;;8.10;48.30;;;;;;5040057;28;20211;-89
2022/03/13 00:05:16;;;;;;;13.27;10.97;;;8.10;49.80;;;;;;5006889;28;20190;-89
2022/03/13 00:07:47;;;;;;;12.97;11.67;;;8.10;50.30;;;;;;5037220;28;20177;-89
2022/03/13 00:10:19;;;;;;;12.60;11.30;;;8.10;50.10;;;;;;5026861;28;20215;-89
2022/03/13 00:12:46;;;;;;;13.73;10.60;;;8.20;49.20;;;;;;5037376;28;20216;-89
2022/03/13 00:15:14;;;;;;;13.07;11.77;;;8.30;48.60;;;;;;5006798;28;20657;-90
2022/03/13 00:17:41;;;;;;;13.93;12.57;;;8.40;48.10;;;;;;5024274;28;20174;-90
2022/03/13 00:20:08;;;;;;;16.13;12.57;;;8.30;47.40;;;;;;5039586;28;20209;-89
2022/03/13 00:22:36;;;;;;;14.60;11.60;;;8.20;47.00;;;;;;5032285;28;20197;-89
2022/03/13 00:25:05;;;;;;;13.77;12.37;;;8.20;46.80;;;;;;5006619;28;20201;-89
2022/03/13 00:27:31;;;;;;;13.80;12.40;;;8.00;47.60;;;;;;5022941;28;20182;-89
2022/03/13 00:30:01;;;;;;;13.77;12.47;;;8.00;48.00;;;;;;5006843;28;20196;-89
2022/03/13 00:32:27;;;;;;;16.33;12.73;;;7.90;48.60;;;;;;5011409;28;20213;-89
2022/03/13 00:34:53;;;;;;;12.37;11.10;;;7.90;48.90;;;;;;5043172;28;20185;-89
2022/03/13 00:37:19;;;;;;;12.10;10.83;;;7.90;50.70;;;;;;5040007;28;20280;-89
2022/03/13 00:39:47;;;;;;;14.93;12.67;;;7.90;51.30;;;;;;5026488;28;20562;-89
2022/03/13 00:42:13;;;;;;;15.67;14.03;;;7.90;48.60;;;;;;5020156;28;20212;-89
2022/03/13 00:44:39;;;;;;;12.70;11.40;;;7.70;48.50;;;;;;5034128;28;20208;-89
2022/03/13 00:47:06;;;;;;;13.60;12.13;;;7.50;48.80;;;;;;5026099;28;20204;-90
2022/03/13 00:49:32;;;;;;;13.00;11.77;;;7.40;49.60;;;;;;5033033;28;20243;-90
2022/03/13 00:52:04;;;;;;;13.87;11.83;;;7.40;49.90;;;;;;5033176;28;20220;-90
2022/03/13 00:54:29;;;;;;;13.93;12.57;;;7.50;49.50;;;;;;5043261;28;20208;-90
2022/03/13 00:56:55;;;;;;;12.53;11.10;;;7.60;49.30;;;;;;5046512;28;20211;-90
2022/03/13 00:59:21;;;;;;;13.37;11.97;;;7.30;52.70;;;;;;5033314;28;20217;-89
2022/03/13 01:01:48;;;;;;;12.93;11.67;;;7.30;53.10;;;;;;5043316;28;20205;-89
2022/03/13 01:04:14;;;;;;;12.10;10.93;;;7.40;52.80;;;;;;5026908;28;20221;-89
2022/03/13 01:06:41;;;;;;;13.53;12.10;;;7.50;52.20;;;;;;5023739;28;20177;-89
2022/03/13 01:09:07;;;;;;;18.17;12.37;;;7.50;50.40;;;;;;5025109;28;20193;-90
2022/03/13 01:11:33;;;;;;;13.70;11.70;;;7.40;50.40;;;;;;5034486;28;20220;-89
2022/03/13 01:13:59;;;;;;;13.03;11.70;;;7.40;50.20;;;;;;5005538;28;20192;-89
2022/03/13 01:16:34;;;;;;;12.93;11.20;;;7.40;50.90;;;;;;5015924;28;20624;-89
2022/03/13 01:19:00;;;;;;;13.20;11.90;;;7.50;49.70;;;;;;5023899;28;20200;-89
2022/03/13 01:21:27;;;;;;;14.43;12.10;;;7.50;51.80;;;;;;5023609;28;20202;-89
2022/03/13 01:24:02;;;;;;;12.77;11.30;;;7.30;52.70;;;;;;5023341;28;20181;-89
2022/03/13 01:26:30;;;;;;;12.50;11.20;;;7.30;52.80;;;;;;5045036;28;20225;-88
2022/03/13 01:28:58;;;;;;;13.13;11.50;;;7.30;52.30;;;;;;5010524;28;20165;-87
2022/03/13 01:31:29;;;;;;;13.17;11.67;;;7.40;51.70;;;;;;5042397;28;20221;-88
2022/03/13 01:33:56;;;;;;;13.20;11.77;;;7.30;52.70;;;;;;5032823;28;20244;-89
2022/03/13 01:36:22;;;;;;;13.43;12.03;;;7.30;52.30;;;;;;5042873;28;20181;-89
2022/03/13 01:38:48;;;;;;;16.20;12.10;;;7.30;51.00;;;;;;5034295;28;20224;-89
2022/03/13 01:41:13;;;;;;;13.97;11.97;;;7.40;52.50;;;;;;5008379;28;20221;-89
2022/03/13 01:43:39;;;;;;;12.80;11.23;;;7.30;52.50;;;;;;5030492;28;20644;-89
2022/03/13 01:46:05;;;;;;;13.33;11.70;;;7.20;53.40;;;;;;5043503;28;20177;-89
2022/03/13 01:48:39;;;;;;;12.67;11.37;;;7.20;53.50;;;;;;5043599;28;20227;-89
2022/03/13 01:51:09;;;;;;;13.17;11.37;;;7.10;53.40;;;;;;5048914;28;20217;-89
2022/03/13 01:53:34;;;;;;;14.70;11.33;;;7.10;53.40;;;;;;5032337;28;20189;-89
2022/03/13 01:56:00;;;;;;;13.33;12.03;;;7.20;52.80;;;;;;5021111;28;20239;-90
2022/03/13 01:58:26;;;;;;;13.13;11.47;;;7.30;51.40;;;;;;5021513;28;20213;-89
2022/03/13 02:00:52;;;;;;;15.67;12.67;;;7.10;52.70;;;;;;5016094;28;20205;-89
2022/03/13 02:03:17;;;;;;;12.60;11.40;;;6.80;54.10;;;;;;5041598;28;20183;-89
2022/03/13 02:05:44;;;;;;;12.73;11.40;;;6.70;55.30;;;;;;5010174;28;20190;-89
2022/03/13 02:08:18;;;;;;;11.77;10.57;;;6.70;54.80;;;;;;5026839;28;20173;-89
2022/03/13 02:10:43;;;;;;;13.13;11.73;;;6.60;55.10;;;;;;5025542;28;20213;-89
2022/03/13 02:13:11;;;;;;;12.60;11.30;;;6.70;54.80;;;;;;5026872;28;20213;-89
2022/03/13 02:15:38;;;;;;;11.67;10.43;;;6.80;54.50;;;;;;5024152;28;20181;-89
2022/03/13 02:18:05;;;;;;;13.00;11.17;;;6.80;54.20;;;;;;5030930;28;20216;-89
2022/03/13 02:20:37;;;;;;;12.53;11.23;;;6.80;54.30;;;;;;5034474;28;20255;-89
2022/03/13 02:23:21;;;;;;;11.93;10.73;;;6.80;54.10;;;;;;5037455;28;20178;-88
2022/03/13 02:25:48;;;;;;;12.57;11.30;;;6.80;54.50;;;;;;5042198;28;20197;-88
2022/03/13 02:28:18;;;;;;;15.23;11.60;;;6.80;54.90;;;;;;5010736;28;20189;-89
2022/03/13 02:30:43;;;;;;;12.70;11.50;;;6.70;55.10;;;;;;5026308;28;20197;-89
2022/03/13 02:33:10;;;;;;;13.10;11.13;;;6.50;55.10;;;;;;5009165;28;20287;-89
2022/03/13 02:35:36;;;;;;;13.30;11.60;;;6.40;56.30;;;;;;5017187;28;20199;-89
2022/03/13 02:38:02;;;;;;;14.10;10.77;;;6.50;56.10;;;;;;5045597;28;20268;-89
2022/03/13 02:40:29;;;;;;;13.93;11.73;;;6.60;55.30;;;;;;5032026;28;20253;-88
2022/03/13 02:42:56;;;;;;;13.57;11.53;;;6.60;55.10;;;;;;5017493;28;20201;-89
2022/03/13 02:45:32;;;;;;;11.80;10.60;;;6.60;55.00;;;;;;5045687;28;20191;-89
2022/03/13 02:48:00;;;;;;;11.73;10.53;;;6.70;55.30;;;;;;5016771;28;20181;-89
2022/03/13 02:50:26;;;;;;;11.47;10.27;;;6.60;55.90;;;;;;5024270;28;20178;-89
2022/03/13 02:52:52;;;;;;;12.73;11.03;;;6.60;55.70;;;;;;5007892;28;20174;-89
2022/03/13 02:55:18;;;;;;;11.73;10.53;;;6.60;55.30;;;;;;5025316;28;20174;-89
2022/03/13 02:57:44;;;;;;;12.33;10.97;;;6.70;55.00;;;;;;5033903;28;20187;-89
2022/03/13 03:00:10;;;;;;;12.60;11.27;;;6.70;55.00;;;;;;5029790;28;20181;-89
2022/03/13 03:02:36;;;;;;;13.30;11.87;;;6.70;54.80;;;;;;5025300;28;20212;-89
2022/03/13 03:05:09;;;;;;;13.67;11.13;;;6.60;54.10;;;;;;5025526;28;20177;-89
2022/03/13 03:07:36;;;;;;;14.33;12.10;;;6.60;54.90;;;;;;5008419;28;20766;-89
2022/03/13 03:10:10;;;;;;;12.30;10.63;;;6.60;53.70;;;;;;5031232;28;20232;-89
2022/03/13 03:12:36;;;;;;;12.80;11.47;;;6.60;54.10;;;;;;5027284;28;20350;-88
2022/03/13 03:15:02;;;;;;;13.17;11.87;;;6.60;54.00;;;;;;5044808;28;20208;-89
2022/03/13 03:17:27;;;;;;;14.60;12.30;;;6.50;54.00;;;;;;5026576;28;20200;-89
2022/03/13 03:19:53;;;;;;;12.97;11.73;;;6.20;55.50;;;;;;5044241;28;20236;-89
2022/03/13 03:22:19;;;;;;;12.40;11.10;;;6.20;55.90;;;;;;5045463;28;20235;-89
2022/03/13 03:24:45;;;;;;;13.20;10.90;;;6.20;56.00;;;;;;5029431;28;20205;-89
2022/03/13 03:27:11;;;;;;;12.93;11.63;;;6.20;55.80;;;;;;5022987;28;20220;-89
2022/03/13 03:29:37;;;;;;;12.00;10.80;;;6.30;55.50;;;;;;5041371;28;20204;-89
2022/03/13 03:32:03;;;;;;;13.40;11.40;;;6.20;55.60;;;;;;5007913;28;20216;-89
2022/03/13 03:34:29;;;;;;;12.67;11.37;;;6.20;55.70;;;;;;5027263;28;20183;-89
2022/03/13 03:37:01;;;;;;;12.97;10.73;;;6.00;55.80;;;;;;5024133;28;20197;-89
2022/03/13 03:39:28;;;;;;;14.40;12.20;;;5.90;56.60;;;;;;5009338;28;20308;-89
2022/03/13 03:41:54;;;;;;;13.77;12.37;;;6.00;56.30;;;;;;5027178;28;20301;-89
2022/03/13 03:44:21;;;;;;;15.57;12.77;;;6.10;56.00;;;;;;5056584;28;20198;-89
2022/03/13 03:46:48;;;;;;;13.67;12.27;;;6.10;55.50;;;;;;5057010;28;20180;-89
2022/03/13 03:49:15;;;;;;;15.10;12.20;;;6.10;55.10;;;;;;5034022;28;20181;-88
2022/03/13 03:51:41;;;;;;;13.73;12.33;;;5.80;56.40;;;;;;5041699;28;20188;-87
2022/03/13 03:54:08;;;;;;;13.30;11.90;;;5.60;57.20;;;;;;5044891;28;20193;-89
2022/03/13 03:56:34;;;;;;;13.27;11.30;;;5.60;58.40;;;;;;5028564;28;20209;-89
2022/03/13 03:59:00;;;;;;;12.90;11.20;;;5.60;57.50;;;;;;5022757;28;20289;-90
2022/03/13 04:01:28;;;;;;;14.07;11.50;;;5.60;58.10;;;;;;5032108;28;20253;-89
2022/03/13 04:03:54;;;;;;;12.87;11.47;;;5.60;57.80;;;;;;5026976;28;20204;-89
2022/03/13 04:06:20;;;;;;;13.50;11.07;;;5.60;57.90;;;;;;5006747;28;20189;-89
2022/03/13 04:08:47;;;;;;;13.20;11.87;;;5.70;57.70;;;;;;5037577;28;20706;-89
2022/03/13 04:11:13;;;;;;;12.93;11.63;;;5.90;57.20;;;;;;5026284;28;20216;-89
2022/03/13 04:13:39;;;;;;;14.43;12.13;;;5.80;57.50;;;;;;5044007;28;20219;-89
2022/03/13 04:16:08;;;;;;;12.60;11.30;;;5.70;57.60;;;;;;5048227;28;20208;-89
2022/03/13 04:18:37;;;;;;;12.57;11.27;;;5.80;57.40;;;;;;5035680;28;20360;-89
2022/03/13 04:21:05;;;;;;;13.53;12.13;;;5.80;57.20;;;;;;5009631;28;20208;-89
2022/03/13 04:23:32;;;;;;;13.17;11.13;;;5.80;56.80;;;;;;5016249;28;20257;-89
2022/03/13 04:25:59;;;;;;;12.97;11.67;;;5.70;57.20;;;;;;5024631;28;20174;-89
2022/03/13 04:28:25;;;;;;;12.13;10.93;;;5.80;57.30;;;;;;5024835;28;20265;-89
2022/03/13 04:30:53;;;;;;;14.10;11.27;;;5.70;57.80;;;;;;5022559;28;20221;-88
2022/03/13 04:33:20;;;;;;;14.87;11.57;;;5.60;58.00;;;;;;5030456;28;20188;-89
2022/03/13 04:35:46;;;;;;;13.93;11.57;;;5.50;58.00;;;;;;5009952;28;20197;-89
2022/03/13 04:38:12;;;;;;;13.10;11.57;;;5.50;58.40;;;;;;5043720;28;20231;-89
2022/03/13 04:40:38;;;;;;;12.77;11.33;;;5.40;58.20;;;;;;5032687;28;20188;-89
2022/03/13 04:43:04;;;;;;;13.97;10.97;;;5.40;58.30;;;;;;5043982;28;20193;-89
2022/03/13 04:45:29;;;;;;;12.23;10.97;;;5.40;58.00;;;;;;5034969;28;20660;-89
2022/03/13 04:47:55;;;;;;;18.27;11.60;;;5.40;58.00;;;;;;5009538;28;20239;-89
2022/03/13 04:50:21;;;;;;;13.37;11.97;;;5.30;58.00;;;;;;5032594;28;20185;-89
2022/03/13 04:52:47;;;;;;;12.30;11.00;;;5.30;58.10;;;;;;5031426;28;20186;-89
2022/03/13 04:55:13;;;;;;;12.67;11.43;;;5.40;58.20;;;;;;5031056;28;20186;-88
2022/03/13 04:57:39;;;;;;;13.20;10.73;;;5.40;57.90;;;;;;5017174;28;20177;-88
2022/03/13 05:00:05;;;;;;;12.90;11.60;;;5.40;57.50;;;;;;5025316;28;20215;-89
2022/03/13 05:02:31;;;;;;;12.90;11.60;;;5.40;57.60;;;;;;5025212;28;20200;-89
2022/03/13 05:04:59;;;;;;;14.10;12.23;;;5.40;58.20;;;;;;5043066;28;20263;-89
2022/03/13 05:07:25;;;;;;;12.47;11.13;;;5.40;57.90;;;;;;5043407;28;20169;-89
2022/03/13 05:09:50;;;;;;;13.00;11.70;;;5.30;58.10;;;;;;5033462;28;20212;-89
2022/03/13 05:12:16;;;;;;;15.37;11.70;;;5.30;57.90;;;;;;5023004;28;20209;-89
2022/03/13 05:14:42;;;;;;;12.13;11.03;;;5.40;57.70;;;;;;5022323;28;20197;-89
2022/03/13 05:17:08;;;;;;;14.03;11.50;;;5.40;57.80;;;;;;5022877;28;20192;-89
2022/03/13 05:19:34;;;;;;;13.73;12.17;;;5.40;58.10;;;;;;5036854;28;20777;-89
2022/03/13 05:22:00;;;;;;;12.87;11.57;;;5.30;59.00;;;;;;5009224;28;20197;-89
2022/03/13 05:24:26;;;;;;;12.17;10.97;;;5.30;59.00;;;;;;5006429;28;20246;-89
2022/03/13 05:26:51;;;;;;;12.60;11.37;;;5.30;58.90;;;;;;5013300;28;20185;-89
2022/03/13 05:29:17;;;;;;;14.73;12.17;;;5.30;58.90;;;;;;5022899;28;20192;-89
2022/03/13 05:31:43;;;;;;;13.63;11.60;;;5.20;58.80;;;;;;5023167;28;20232;-89
2022/03/13 05:34:10;;;;;;;12.67;11.40;;;5.30;58.90;;;;;;5023156;28;20177;-89
2022/03/13 05:36:35;;;;;;;12.80;11.50;;;5.30;58.70;;;;;;5034129;28;20224;-89
2022/03/13 05:39:02;;;;;;;14.93;13.20;;;5.20;59.00;;;;;;5034115;28;20208;-89
2022/03/13 05:41:29;;;;;;;12.70;11.40;;;5.20;58.90;;;;;;5043626;28;20223;-89
2022/03/13 05:43:54;;;;;;;15.30;13.70;;;5.10;59.40;;;;;;5046304;28;20235;-89
2022/03/13 05:46:20;;;;;;;16.73;13.57;;;5.00;59.00;;;;;;5021707;28;20192;-88
2022/03/13 05:48:46;;;;;;;13.73;12.33;;;4.80;59.30;;;;;;5038504;28;20197;-89
2022/03/13 05:51:11;;;;;;;14.47;11.90;;;4.80;59.80;;;;;;5043016;28;20217;-89
2022/03/13 05:53:37;;;;;;;13.97;12.30;;;4.90;59.60;;;;;;5041917;28;20204;-88
2022/03/13 05:56:03;;;;;;;13.53;12.17;;;4.90;60.00;;;;;;5038388;28;20198;-88
2022/03/13 05:58:29;;;;;;;12.90;11.60;;;4.90;59.40;;;;;;5038397;28;20213;-89
2022/03/13 06:01:05;;;;;;;12.23;11.03;;;4.80;59.50;;;;;;5046167;28;20213;-89
2022/03/13 06:03:31;;;;;;;12.97;11.73;;;4.80;59.60;;;;;;5057945;28;20149;-87
2022/03/13 06:05:57;;;;;;;15.10;12.30;;;4.90;59.50;;;;;;5030943;28;20189;-88
2022/03/13 06:08:23;;;;;;;13.47;12.17;;;4.90;59.70;;;;;;5055456;28;20180;-88
2022/03/13 06:10:49;;;;;;;13.63;11.63;;;4.90;59.70;;;;;;5032979;28;20206;-87
2022/03/13 06:13:15;;;;;;;13.57;11.90;;;4.90;59.40;;;;;;5028625;28;20182;-88
2022/03/13 06:15:41;;;;;;;13.10;11.73;;;5.00;59.60;;;;;;5029508;28;20185;-88
2022/03/13 06:18:06;;;;;;;14.27;12.80;;;5.00;60.20;;;;;;5037502;28;20224;-89
2022/03/13 06:20:32;;;;;;;15.97;13.20;;;5.10;59.40;;;;;;5008071;28;20192;-88
2022/03/13 06:22:59;;;;;;;13.37;11.93;;;5.10;59.20;;;;;;5044341;28;20196;-88
2022/03/13 06:25:24;;;;;;;14.97;12.70;;;5.20;59.60;;;;;;5021625;28;20181;-88
2022/03/13 06:27:50;;;;;;;13.87;12.37;;;5.30;59.40;;;;;;5045531;28;20212;-88
2022/03/13 06:30:17;;;;;;;13.60;12.27;;;5.30;59.20;;;;;;5038412;28;20189;-89
2022/03/13 06:32:47;;;;;;;15.77;13.00;;;5.30;59.20;;;;;;5023527;28;20287;-87
2022/03/13 06:35:15;;;;;;;16.10;12.50;;;5.30;59.30;;;;;;5035945;28;20196;-88
2022/03/13 06:37:41;;;;;;;17.83;14.90;;;5.20;59.40;;;;;;5040301;28;20213;-89
2022/03/13 06:40:08;;;;;;;17.17;15.33;;;5.20;60.50;;;;;;5026896;28;20262;-89
2022/03/13 06:42:34;;;;;;;14.47;12.97;;;5.10;59.60;;;;;;5044507;28;20208;-88
2022/03/13 06:45:00;;;;;;;14.53;12.93;;;5.00;60.90;;;;;;5000473;28;20188;-88
2022/03/13 06:47:26;;;;;;;14.40;12.90;;;5.10;60.80;;;;;;5035504;28;20522;-87
2022/03/13 06:49:52;;;;;;;14.20;12.00;;;5.20;60.10;;;;;;5013377;28;20186;-88
2022/03/13 06:52:18;;;;;;;17.37;14.20;;;5.30;60.00;;;;;;5024337;28;20240;-88
2022/03/13 06:54:45;;;;;;;17.73;13.63;;;5.30;59.70;;;;;;5024249;28;20182;-88
2022/03/13 06:57:14;;;;;;;17.30;13.47;;;5.50;59.30;;;;;;5038374;28;20200;-89
2022/03/13 06:59:43;;;;;;;16.60;13.37;;;5.60;58.70;;;;;;5045538;28;20209;-89
2022/03/13 07:02:13;;;;;;;15.67;13.43;;;5.60;59.00;;;;;;5026440;28;20208;-89
2022/03/13 07:04:39;;;;;;;16.97;14.47;;;5.70;58.40;;;;;;5035571;28;20272;-89
2022/03/13 07:07:05;;;;;;;17.37;14.27;;;5.80;57.80;;;;;;5006664;28;20190;-88
2022/03/13 07:09:31;;;;;;;17.60;13.97;;;5.90;58.00;;;;;;5036638;28;20199;-89
2022/03/13 07:11:58;;;;;;;16.60;14.90;;;5.90;57.80;;;;;;5007168;28;20787;-89
2022/03/13 07:14:24;;;;;;;16.47;14.77;;;6.00;57.70;;;;;;5024429;28;20192;-88
2022/03/13 07:16:51;;;;;;;17.30;14.27;;;6.00;57.20;;;;;;5041222;28;20189;-89
2022/03/13 07:19:16;;;;;;;18.40;14.97;;;5.90;57.70;;;;;;5028416;28;20303;-89
2022/03/13 07:21:43;;;;;;;18.33;15.50;;;5.90;58.40;;;;;;5042290;28;20209;-89
2022/03/13 07:24:10;;;;;;;17.13;14.53;;;5.90;58.00;;;;;;5044791;28;20180;-89
2022/03/13 07:26:36;;;;;;;17.43;14.77;;;5.90;58.30;;;;;;5044751;28;20180;-89
2022/03/13 07:29:02;;;;;;;17.37;15.13;;;5.70;58.50;;;;;;5062846;28;20189;-89
2022/03/13 07:31:31;;;;;;;17.60;15.70;;;5.70;58.20;;;;;;5046174;28;20214;-89
2022/03/13 07:33:58;;;;;;;16.60;14.83;;;5.70;58.80;;;;;;5044064;28;20184;-88
2022/03/13 07:36:24;;;;;;;18.73;15.27;;;5.60;59.60;;;;;;5005902;28;20192;-89
2022/03/13 07:38:50;;;;;;;17.53;14.27;;;5.60;61.00;;;;;;5017931;28;20577;-90
2022/03/13 07:41:16;;;;;;;18.57;15.40;;;5.60;61.10;;;;;;5039708;28;20209;-88
2022/03/13 07:43:42;;;;;;;15.87;14.20;;;5.80;62.60;;;;;;5026284;28;20173;-89
2022/03/13 07:46:08;;;;;;;16.63;14.43;;;6.00;60.90;;;;;;5043378;28;20184;-88
2022/03/13 07:48:34;;;;;;;17.30;15.23;;;6.10;59.40;;;;;;5044090;28;20196;-89
2022/03/13 07:51:01;;;;;;;21.37;15.63;;;6.30;58.80;;;;;;5043661;28;20205;-89
2022/03/13 07:53:28;;;;;;;20.93;15.57;;;6.60;58.40;;;;;;5026515;28;20215;-89
2022/03/13 07:55:54;;;;;;;19.93;16.67;;;6.60;58.10;;;;;;5028023;28;20196;-89
2022/03/13 07:58:21;;;;;;;19.30;15.27;;;6.60;58.10;;;;;;5020611;28;20229;-89
2022/03/13 08:00:47;;;;;;;17.50;15.30;;;6.70;57.10;;;;;;5011915;28;20201;-88
2022/03/13 08:03:14;;;;;;;17.53;15.63;;;6.70;57.30;;;;;;5017062;28;20186;-88
2022/03/13 08:05:40;;;;;;;18.40;16.10;;;6.70;57.40;;;;;;5006490;28;20556;-88
2022/03/13 08:08:06;;;;;;;20.73;15.73;;;6.80;57.30;;;;;;5044077;28;20260;-89
2022/03/13 08:10:31;;;;;;;18.77;16.73;;;6.80;57.60;;;;;;5006184;28;20185;-89
2022/03/13 08:12:57;;;;;;;17.20;15.40;;;6.90;56.50;;;;;;5032641;28;20181;-88
2022/03/13 08:15:23;;;;;;;21.50;17.13;;;7.00;56.10;;;;;;5030491;28;20193;-87
2022/03/13 08:17:49;;;;;;;18.20;16.20;;;7.00;57.00;;;;;;5014023;28;20192;-87
2022/03/13 08:20:15;;;;;;;18.63;16.10;;;7.10;56.30;;;;;;5042576;28;20236;-87
2022/03/13 08:22:41;;;;;;;17.93;15.97;;;7.20;56.00;;;;;;5030452;28;20307;-86
2022/03/13 08:25:07;;;;;;;19.90;16.07;;;7.40;55.70;;;;;;5036323;28;20200;-87
2022/03/13 08:27:34;;;;;;;21.07;16.30;;;7.60;55.40;;;;;;5058752;28;20204;-86
2022/03/13 08:30:04;;;;;;;18.77;16.77;;;7.70;55.30;;;;;;5032494;28;20213;-85
2022/03/13 08:32:30;;;;;;;17.47;15.67;;;7.80;55.20;;;;;;5015486;28;20220;-87
2022/03/13 08:34:56;;;;;;;18.50;16.60;;;7.90;55.30;;;;;;5035501;28;20261;-87
2022/03/13 08:37:22;;;;;;;20.37;18.03;;;8.10;54.20;;;;;;5043083;28;20226;-87
2022/03/13 08:39:48;;;;;;;17.60;15.63;;;8.00;53.70;;;;;;5040930;28;20220;-87
2022/03/13 08:42:14;;;;;;;19.23;16.80;;;8.00;54.20;;;;;;5012913;28;20215;-87
2022/03/13 08:44:40;;;;;;;19.80;16.97;;;8.20;54.30;;;;;;5031916;28;20181;-87
2022/03/13 08:47:05;;;;;;;18.97;16.60;;;8.40;53.40;;;;;;5033601;28;20178;-87
2022/03/13 08:49:31;;;;;;;18.67;16.70;;;8.50;52.80;;;;;;5031660;28;20197;-87
2022/03/13 08:51:57;;;;;;;18.93;17.03;;;8.40;51.70;;;;;;5020320;28;20275;-87
2022/03/13 08:54:23;;;;;;;18.23;16.43;;;8.50;51.70;;;;;;5016757;28;20479;-87
2022/03/13 08:56:49;;;;;;;18.73;16.70;;;8.50;51.50;;;;;;5025369;28;20181;-87
2022/03/13 08:59:16;;;;;;;19.53;17.53;;;8.60;51.50;;;;;;5025691;28;20231;-87
2022/03/13 09:01:42;;;;;;;20.17;18.07;;;8.80;51.70;;;;;;5039201;28;20704;-87
2022/03/13 09:04:08;;;;;;;19.40;17.50;;;9.00;50.90;;;;;;5027131;28;20177;-87
2022/03/13 09:06:34;;;;;;;23.83;18.60;;;9.10;49.70;;;;;;5032348;28;20597;-87
2022/03/13 09:08:59;;;;;;;19.97;17.93;;;9.10;50.00;;;;;;5018608;28;20194;-88
2022/03/13 09:11:25;;;;;;;20.70;18.57;;;9.10;49.80;;;;;;5005101;28;20228;-88
2022/03/13 09:13:51;;;;;;;22.23;17.97;;;9.20;49.80;;;;;;5003536;28;20196;-88
2022/03/13 09:16:17;;;;;;;21.00;18.77;;;9.50;49.70;;;;;;5021224;28;20250;-88
2022/03/13 09:18:43;;;;;;;21.47;17.90;;;9.60;49.40;;;;;;5039665;28;20209;-88
2022/03/13 09:21:08;;;;;;;21.13;18.97;;;9.90;49.30;;;;;;5021539;28;20231;-88
2022/03/13 09:23:36;;;;;;;20.53;17.37;;;9.90;47.80;;;;;;5021445;28;20208;-88
2022/03/13 09:26:01;;;;;;;20.37;18.27;;;9.90;48.20;;;;;;5039419;28;20204;-88
2022/03/13 09:28:29;;;;;;;21.30;18.10;;;10.00;48.40;;;;;;5040810;28;20193;-88
2022/03/13 09:30:56;;;;;;;20.57;18.43;;;10.10;47.70;;;;;;5040384;28;20248;-88
2022/03/13 09:33:21;;;;;;;20.97;18.77;;;10.20;47.50;;;;;;5039119;28;20247;-88
2022/03/13 09:35:48;;;;;;;22.17;19.97;;;10.40;47.40;;;;;;5029244;28;20197;-87
2022/03/13 09:38:15;;;;;;;22.07;19.90;;;10.40;47.10;;;;;;5014186;28;20195;-87
2022/03/13 09:40:42;;;;;;;28.03;25.17;;;10.40;46.90;;;;;;5042489;28;20699;-88
2022/03/13 09:43:08;;;;;;;27.67;24.97;;;10.50;46.60;;;;;;5025347;28;20185;-88
2022/03/13 09:45:33;;;;;;;22.97;20.57;;;10.50;46.80;;;;;;5024197;28;20185;-88
2022/03/13 09:48:02;;;;;;;25.20;22.43;;;10.70;46.30;;;;;;5026123;28;20188;-88
2022/03/13 09:50:29;;;;;;;24.83;22.37;;;10.60;46.00;;;;;;5040619;28;20219;-88
2022/03/13 09:52:55;;;;;;;23.80;20.27;;;10.70;46.20;;;;;;5021891;28;20188;-88
2022/03/13 09:55:20;;;;;;;23.23;19.50;;;10.80;45.80;;;;;;5028478;28;20180;-88
2022/03/13 09:57:48;;;;;;;22.10;19.83;;;10.80;45.20;;;;;;5023466;28;20185;-88
2022/03/13 10:00:18;;;;;;;22.67;19.97;;;10.90;44.80;;;;;;5018725;28;20232;-88
2022/03/13 10:02:44;;;;;;;22.40;20.27;;;11.10;44.50;;;;;;5011399;28;20206;-88
2022/03/13 10:05:12;;;;;;;22.87;20.13;;;11.40;44.00;;;;;;5027229;28;20300;-88
2022/03/13 10:07:58;;;;;;;22.57;20.40;;;11.60;43.70;;;;;;5025227;28;20238;-87
2022/03/13 10:10:27;;;;;;;23.60;21.40;;;11.80;42.10;;;;;;5006590;28;20772;-88
2022/03/13 10:12:53;;;;;;;24.53;22.03;;;11.90;42.40;;;;;;5022512;28;20204;-87
2022/03/13 10:15:19;;;;;;;24.70;22.03;;;12.00;42.10;;;;;;5004127;28;20189;-88
2022/03/13 10:17:45;;;;;;;22.83;20.43;;;12.20;41.40;;;;;;5015059;28;20192;-88
2022/03/13 10:20:26;;;;;;;24.70;21.87;;;12.30;41.20;;;;;;5028087;28;20197;-88
2022/03/13 10:23:01;;;;;;;23.70;21.20;;;12.70;41.10;;;;;;4993000;28;20436;-88
2022/03/13 10:25:31;;;;;;;23.50;21.10;;;12.90;40.30;;;;;;5036642;28;20204;-88
2022/03/13 10:28:24;;;;;;;26.10;23.30;;;13.10;39.50;;;;;;5030200;28;20244;-89
2022/03/13 10:30:59;;;;;;;25.43;22.83;;;13.50;39.40;;;;;;5011140;28;21317;-87
2022/03/13 10:33:43;;;;;;;24.47;21.23;;;13.70;38.70;;;;;;5034620;28;20680;-88
2022/03/13 10:36:11;;;;;;;23.80;21.17;;;13.80;38.30;;;;;;5031109;28;20228;-89
2022/03/13 10:38:38;;;;;;;23.67;21.20;;;14.00;38.20;;;;;;5017952;28;20202;-89
2022/03/13 10:41:08;;;;;;;23.43;20.93;;;14.10;37.80;;;;;;5039880;28;20211;-88
2022/03/13 10:43:37;;;;;;;22.70;20.50;;;14.20;38.30;;;;;;5032197;28;20363;-88
2022/03/13 10:46:03;;;;;;;38.07;28.50;;;14.00;37.80;;;;;;5050495;28;20218;-88
2022/03/13 10:48:32;;;;;;;27.70;24.87;;;14.00;37.80;;;;;;5037088;28;20192;-88
2022/03/13 10:51:03;;;;;;;27.70;24.67;;;14.10;37.30;;;;;;5034033;28;20216;-89
2022/03/13 10:53:29;;;;;;;26.43;23.40;;;14.20;37.30;;;;;;5034410;28;20272;-89
2022/03/13 10:56:07;;;;;;;25.23;22.60;;;14.30;37.30;;;;;;5035288;28;20228;-89
2022/03/13 10:58:35;;;;;;;23.10;20.70;;;14.20;36.90;;;;;;5030641;28;20224;-88
2022/03/13 11:01:07;;;;;;;25.10;21.57;;;14.10;37.20;;;;;;5035136;28;20212;-89
2022/03/13 11:03:47;;;;;;;23.50;21.03;;;14.20;37.10;;;;;;5014133;28;20191;-89
2022/03/13 11:06:12;;;;;;;24.23;21.87;;;14.50;36.90;;;;;;5031376;28;20242;-89
2022/03/13 11:08:40;;;;;;;22.60;20.40;;;14.70;36.20;;;;;;5015969;28;20238;-89
2022/03/13 11:11:06;;;;;;;23.27;21.03;;;14.80;36.20;;;;;;5019323;28;20733;-87
2022/03/13 11:13:34;;;;;;;22.43;20.20;;;15.10;35.70;;;;;;5018963;28;20276;-89
2022/03/13 11:16:01;;;;;;;24.10;20.90;;;15.10;35.20;;;;;;5034366;28;20232;-89
2022/03/13 11:18:33;;;;;;;24.80;22.17;;;14.90;35.90;;;;;;5034047;28;20699;-89
2022/03/13 11:21:00;;;;;;;23.67;21.27;;;15.10;35.40;;;;;;5034944;28;20209;-89
2022/03/13 11:23:29;;;;;;;22.70;20.40;;;15.20;35.50;;;;;;5030553;28;20206;-88
2022/03/13 11:25:56;;;;;;;24.20;21.67;;;15.40;35.40;;;;;;5034366;28;20187;-89
2022/03/13 11:28:22;;;;;;;24.97;22.43;;;15.70;34.90;;;;;;5033933;28;20746;-88
2022/03/13 11:30:49;;;;;;;26.30;23.27;;;16.00;34.70;;;;;;5032689;28;20203;-88
2022/03/13 11:33:39;;;;;;;24.70;22.20;;;16.60;33.80;;;;;;5012909;28;20198;-89
2022/03/13 11:36:30;;;;;;;25.23;22.77;;;16.80;33.10;;;;;;5013597;28;20601;-90
2022/03/13 11:39:02;;;;;;;24.83;22.43;;;17.20;33.10;;;;;;5027623;28;20198;-88
2022/03/13 11:41:37;;;;;;;24.23;21.80;;;17.50;32.10;;;;;;5018014;28;20261;-87
2022/03/13 11:44:04;;;;;;;24.73;22.30;;;17.50;32.40;;;;;;5031570;28;20183;-88
2022/03/13 11:46:40;;;;;;;27.50;23.73;;;17.30;32.30;;;;;;5025261;28;20193;-90
2022/03/13 11:49:31;;;;;;;24.13;21.53;;;17.30;32.40;;;;;;5033939;28;20377;-87
2022/03/13 11:52:20;;;;;;;24.30;21.77;;;17.50;32.10;;;;;;5013032;28;20213;-89
2022/03/13 11:54:52;;;;;;;24.37;21.87;;;17.70;31.80;;;;;;5025061;28;20644;-87
2022/03/13 11:57:20;;;;;;;25.83;23.33;;;17.90;32.80;;;;;;5027058;28;20186;-87
2022/03/13 11:59:49;;;;;;;27.27;24.57;;;17.90;31.50;;;;;;5032371;28;20242;-89
2022/03/13 12:02:42;;;;;;;25.90;23.50;;;17.70;31.40;;;;;;5028528;28;20209;-89
2022/03/13 12:05:29;;;;;;;26.63;22.33;;;17.30;32.00;;;;;;5013787;28;20218;-89
2022/03/13 12:08:05;;;;;;;25.33;22.83;;;17.60;31.80;;;;;;5027274;28;20280;-90
2022/03/13 12:10:41;;;;;;;26.30;23.40;;;17.90;31.90;;;;;;5033041;28;20188;-88
2022/03/13 12:13:11;;;;;;;25.20;22.70;;;18.00;31.30;;;;;;5018296;28;20193;-88
2022/03/13 12:15:39;;;;;;;25.00;22.60;;;18.20;30.70;;;;;;5036661;28;20255;-87
2022/03/13 12:18:27;;;;;;;26.30;23.83;;;18.20;30.80;;;;;;5038780;28;20188;-87
2022/03/13 12:21:04;;;;;;;25.50;22.90;;;18.20;31.00;;;;;;5029985;28;20213;-88
2022/03/13 12:23:33;;;;;;;25.53;22.90;;;18.20;31.10;;;;;;5036594;28;20215;-88
2022/03/13 12:26:25;;;;;;;25.23;22.73;;;18.30;31.00;;;;;;5040670;28;20214;-89
2022/03/13 12:28:58;;;;;;;24.53;22.10;;;18.40;31.10;;;;;;5039997;28;20184;-89
2022/03/13 12:31:25;;;;;;;25.57;23.03;;;18.60;30.90;;;;;;5017682;28;20249;-89
2022/03/13 12:33:54;;;;;;;27.30;23.43;;;18.40;30.40;;;;;;5037141;28;20252;-88
2022/03/13 12:36:23;;;;;;;24.73;22.33;;;18.10;31.00;;;;;;5020632;28;20196;-89